Time,TemperatureF,DewpointF,PressureIn,WindDirection,WindDirectionDegrees,WindSpeedMPH,WindSpeedGustMPH,Humidity,HourlyPrecipIn,Conditions,Clouds,dailyrainin,SoftwareType,DateUTC
2013-04-01 00:02:00,27.0,20.0,-100.00,ESE,121,4.0,5.0,75,0.00,,,-99.99,,2013-04-01 06:02:00,
2013-04-01 00:12:00,27.0,20.0,-100.00,ESE,121,4.0,5.0,75,0.00,,,-99.99,,2013-04-01 06:12:00,
2013-04-01 00:22:00,27.0,22.0,-100.00,SE,129,4.0,6.0,81,0.00,,,-99.99,,2013-04-01 06:22:00,
2013-04-01 00:33:00,27.0,22.0,-100.00,SE,126,5.0,8.0,80,0.00,,,-99.99,,2013-04-01 06:33:00,
2013-04-01 00:42:00,27.0,22.0,-100.00,SE,126,5.0,8.0,80,0.00,,,-99.99,,2013-04-01 06:42:00,
2013-04-01 00:52:00,27.0,22.0,-100.00,ESE,115,5.0,8.0,80,0.00,,,-99.99,,2013-04-01 06:52:00,
2013-04-01 01:02:00,27.0,23.0,-100.00,ESE,107,5.0,7.0,83,0.00,,,-99.99,,2013-04-01 07:02:00,
2013-04-01 01:12:00,27.0,23.0,-100.00,ESE,107,5.0,7.0,83,0.00,,,-99.99,,2013-04-01 07:12:00,
2013-04-01 01:22:00,26.0,22.0,-100.00,SSE,148,3.0,5.0,84,0.00,,,-99.99,,2013-04-01 07:22:00,
2013-04-01 01:32:00,25.0,21.0,-100.00,ESE,112,5.0,7.0,86,0.00,,,-99.99,,2013-04-01 07:32:00,
2013-04-01 01:42:00,25.0,21.0,-100.00,ESE,112,5.0,7.0,86,0.00,,,-99.99,,2013-04-01 07:42:00,
2013-04-01 01:53:00,25.0,19.0,-100.00,ESE,111,5.0,7.0,77,0.00,,,-99.99,,2013-04-01 07:53:00,
2013-04-01 02:02:00,26.0,19.0,-100.00,ESE,107,5.0,7.0,75,0.00,,,-99.99,,2013-04-01 08:02:00,
2013-04-01 02:12:00,26.0,19.0,-100.00,ESE,107,5.0,7.0,75,0.00,,,-99.99,,2013-04-01 08:12:00,
2013-04-01 02:22:00,25.0,19.0,-100.00,SE,126,3.0,4.0,76,0.00,,,-99.99,,2013-04-01 08:22:00,
2013-04-01 02:32:00,24.0,20.0,-100.00,ESE,122,5.0,7.0,83,0.00,,,-99.99,,2013-04-01 08:32:00,
2013-04-01 02:43:00,24.0,20.0,-100.00,ESE,122,5.0,7.0,83,0.00,,,-99.99,,2013-04-01 08:43:00,
2013-04-01 02:53:00,24.0,19.0,-100.00,SE,132,6.0,8.0,82,0.00,,,-99.99,,2013-04-01 08:53:00,
2013-04-01 03:02:00,24.0,19.0,-100.00,SE,128,5.0,8.0,81,0.00,,,-99.99,,2013-04-01 09:02:00,
2013-04-01 03:12:00,24.0,19.0,-100.00,SE,128,5.0,8.0,81,0.00,,,-99.99,,2013-04-01 09:12:00,
2013-04-01 03:22:00,24.0,21.0,-100.00,ESE,112,5.0,6.0,88,0.00,,,-99.99,,2013-04-01 09:22:00,
2013-04-01 03:33:00,24.0,19.0,-100.00,SE,124,4.0,6.0,81,0.00,,,-99.99,,2013-04-01 09:33:00,
2013-04-01 03:42:00,24.0,19.0,-100.00,SE,124,4.0,6.0,81,0.00,,,-99.99,,2013-04-01 09:42:00,
2013-04-01 03:53:00,24.0,20.0,-100.00,SE,128,5.0,7.0,85,0.00,,,-99.99,,2013-04-01 09:53:00,
2013-04-01 04:03:00,23.0,19.0,-100.00,ESE,122,7.0,9.0,84,0.00,,,-99.99,,2013-04-01 10:03:00,
2013-04-01 04:12:00,23.0,19.0,-100.00,ESE,122,7.0,9.0,84,0.00,,,-99.99,,2013-04-01 10:12:00,
2013-04-01 04:23:00,24.0,20.0,-100.00,ESE,122,5.0,8.0,83,0.00,,,-99.99,,2013-04-01 10:23:00,
2013-04-01 04:33:00,23.0,18.0,-100.00,ESE,118,6.0,8.0,80,0.00,,,-99.99,,2013-04-01 10:33:00,
2013-04-01 04:42:00,23.0,18.0,-100.00,ESE,118,6.0,8.0,80,0.00,,,-99.99,,2013-04-01 10:42:00,
2013-04-01 04:53:00,23.0,19.0,-100.00,SE,124,6.0,9.0,83,0.00,,,-99.99,,2013-04-01 10:53:00,
2013-04-01 05:03:00,23.0,18.0,-100.00,ESE,120,6.0,9.0,81,0.00,,,-99.99,,2013-04-01 11:03:00,
2013-04-01 05:12:00,23.0,18.0,-100.00,ESE,120,6.0,9.0,81,0.00,,,-99.99,,2013-04-01 11:12:00,
2013-04-01 05:23:00,23.0,19.0,-100.00,ESE,116,7.0,9.0,84,0.00,,,-99.99,,2013-04-01 11:23:00,
2013-04-01 05:32:00,23.0,20.0,-100.00,ESE,120,6.0,9.0,89,0.00,,,-99.99,,2013-04-01 11:32:00,
2013-04-01 05:42:00,23.0,20.0,-100.00,ESE,120,6.0,9.0,89,0.00,,,-99.99,,2013-04-01 11:42:00,
2013-04-01 05:52:00,22.0,19.0,-100.00,ESE,115,5.0,6.0,88,0.00,,,-99.99,,2013-04-01 11:52:00,
2013-04-01 06:02:00,22.0,19.0,-100.00,ESE,116,6.0,8.0,88,0.00,,,-99.99,,2013-04-01 12:02:00,
2013-04-01 06:12:00,22.0,19.0,-100.00,ESE,116,6.0,8.0,88,0.00,,,-99.99,,2013-04-01 12:12:00,
2013-04-01 06:22:00,22.0,18.0,-100.00,ESE,123,5.0,7.0,85,0.00,,,-99.99,,2013-04-01 12:22:00,
2013-04-01 06:32:00,21.0,19.0,-100.00,ESE,118,5.0,7.0,90,0.00,,,-99.99,,2013-04-01 12:32:00,
2013-04-01 06:42:00,21.0,19.0,-100.00,ESE,118,5.0,7.0,90,0.00,,,-99.99,,2013-04-01 12:42:00,
2013-04-01 06:52:00,22.0,19.0,-100.00,ESE,120,4.0,6.0,87,0.00,,,-99.99,,2013-04-01 12:52:00,
2013-04-01 07:02:00,22.0,20.0,-100.00,ESE,115,6.0,7.0,91,0.00,,,-99.99,,2013-04-01 13:02:00,
2013-04-01 07:12:00,22.0,20.0,-100.00,ESE,115,6.0,7.0,91,0.00,,,-99.99,,2013-04-01 13:12:00,
2013-04-01 07:22:00,22.0,18.0,-100.00,SE,127,5.0,7.0,84,0.00,,,-99.99,,2013-04-01 13:22:00,
2013-04-01 07:32:00,21.0,18.0,-100.00,SE,135,6.0,8.0,89,0.00,,,-99.99,,2013-04-01 13:32:00,
2013-04-01 07:42:00,21.0,18.0,-100.00,SE,135,6.0,8.0,89,0.00,,,-99.99,,2013-04-01 13:42:00,
2013-04-01 07:52:00,22.0,18.0,-100.00,ESE,118,5.0,8.0,86,0.00,,,-99.99,,2013-04-01 13:52:00,
2013-04-01 08:03:00,27.0,23.0,-100.00,ESE,122,6.0,7.0,84,0.00,,,-99.99,,2013-04-01 14:03:00,
2013-04-01 08:12:00,27.0,23.0,-100.00,ESE,122,6.0,7.0,84,0.00,,,-99.99,,2013-04-01 14:12:00,
2013-04-01 08:22:00,27.0,22.0,-100.00,SE,128,5.0,7.0,82,0.00,,,-99.99,,2013-04-01 14:22:00,
2013-04-01 08:32:00,27.0,23.0,-100.00,ESE,120,5.0,6.0,86,0.00,,,-99.99,,2013-04-01 14:32:00,
2013-04-01 08:42:00,27.0,23.0,-100.00,ESE,120,5.0,6.0,86,0.00,,,-99.99,,2013-04-01 14:42:00,
2013-04-01 08:53:00,27.0,21.0,-100.00,ESE,109,4.0,6.0,79,0.00,,,-99.99,,2013-04-01 14:53:00,
2013-04-01 09:02:00,29.0,24.0,-100.00,ESE,112,4.0,6.0,81,0.00,,,-99.99,,2013-04-01 15:02:00,
2013-04-01 09:13:00,29.0,24.0,-100.00,ESE,112,4.0,6.0,81,0.00,,,-99.99,,2013-04-01 15:13:00,
2013-04-01 09:22:00,35.0,26.0,-100.00,East,98,4.0,6.0,68,0.00,,,-99.99,,2013-04-01 15:22:00,
2013-04-01 09:33:00,39.0,24.0,-100.00,SE,135,3.0,4.0,54,0.00,,,-99.99,,2013-04-01 15:33:00,
2013-04-01 09:43:00,39.0,24.0,-100.00,SE,135,3.0,4.0,54,0.00,,,-99.99,,2013-04-01 15:43:00,
2013-04-01 09:53:00,38.0,27.0,-100.00,South,170,2.0,4.0,64,0.00,,,-99.99,,2013-04-01 15:53:00,
2013-04-01 10:02:00,39.0,25.0,-100.00,ESE,123,3.0,4.0,56,0.00,,,-99.99,,2013-04-01 16:02:00,
2013-04-01 10:13:00,39.0,25.0,-100.00,ESE,123,3.0,4.0,56,0.00,,,-99.99,,2013-04-01 16:13:00,
2013-04-01 10:23:00,41.0,28.0,-100.00,ESE,106,4.0,6.0,60,0.00,,,-99.99,,2013-04-01 16:23:00,
2013-04-01 10:33:00,44.0,34.0,-100.00,SSE,147,3.0,5.0,67,0.00,,,-99.99,,2013-04-01 16:33:00,
2013-04-01 10:42:00,44.0,34.0,-100.00,SSE,147,3.0,5.0,67,0.00,,,-99.99,,2013-04-01 16:42:00,
2013-04-01 10:53:00,46.0,31.0,-100.00,SE,127,3.0,5.0,55,0.00,,,-99.99,,2013-04-01 16:53:00,
2013-04-01 11:03:00,48.0,32.0,-100.00,SE,143,3.0,5.0,54,0.00,,,-99.99,,2013-04-01 17:03:00,
2013-04-01 11:12:00,48.0,32.0,-100.00,SE,143,3.0,5.0,54,0.00,,,-99.99,,2013-04-01 17:12:00,
2013-04-01 11:22:00,46.0,32.0,-100.00,SSW,198,10.0,15.0,58,0.00,,,-99.99,,2013-04-01 17:22:00,
2013-04-01 11:32:00,46.0,32.0,-100.00,SSW,198,10.0,15.0,58,0.00,,,-99.99,,2013-04-01 17:32:00,
2013-04-01 11:42:00,46.0,32.0,-100.00,SSW,198,10.0,15.0,58,0.00,,,-99.99,,2013-04-01 17:42:00,
2013-04-01 11:53:00,43.0,29.0,-100.00,ESE,106,3.0,6.0,57,0.00,,,-99.99,,2013-04-01 17:53:00,
2013-04-01 12:02:00,46.0,34.0,-100.00,ESE,107,4.0,6.0,62,0.00,,,-99.99,,2013-04-01 18:02:00,
2013-04-01 12:12:00,46.0,34.0,-100.00,ESE,107,4.0,6.0,62,0.00,,,-99.99,,2013-04-01 18:12:00,
2013-04-01 12:22:00,50.0,38.0,-100.00,East,100,3.0,7.0,63,0.00,,,-99.99,,2013-04-01 18:22:00,
2013-04-01 12:32:00,54.0,40.0,-100.00,ENE,73,4.0,6.0,60,0.00,,,-99.99,,2013-04-01 18:32:00,
2013-04-01 12:42:00,54.0,40.0,-100.00,ENE,73,4.0,6.0,60,0.00,,,-99.99,,2013-04-01 18:42:00,
2013-04-01 12:53:00,51.0,31.0,-100.00,NNE,28,1.0,4.0,46,0.00,,,-99.99,,2013-04-01 18:53:00,
2013-04-01 13:03:00,51.0,41.0,-100.00,SSW,210,0.0,3.0,68,0.00,,,-99.99,,2013-04-01 19:03:00,
2013-04-01 13:12:00,51.0,41.0,-100.00,SSW,210,0.0,3.0,68,0.00,,,-99.99,,2013-04-01 19:12:00,
2013-04-01 13:23:00,48.0,31.0,-100.00,South,187,5.0,8.0,52,0.00,,,-99.99,,2013-04-01 19:23:00,
2013-04-01 13:32:00,47.0,33.0,-100.00,WSW,244,7.0,12.0,57,0.00,,,-99.99,,2013-04-01 19:32:00,
2013-04-01 13:42:00,47.0,33.0,-100.00,WSW,244,7.0,12.0,57,0.00,,,-99.99,,2013-04-01 19:42:00,
2013-04-01 13:53:00,51.0,38.0,-100.00,NW,326,5.0,8.0,62,0.00,,,-99.99,,2013-04-01 19:53:00,
2013-04-01 14:02:00,56.0,41.0,-100.00,NNE,30,3.0,6.0,58,0.00,,,-99.99,,2013-04-01 20:02:00,
2013-04-01 14:12:00,56.0,41.0,-100.00,NNE,30,3.0,6.0,58,0.00,,,-99.99,,2013-04-01 20:12:00,
2013-04-01 14:22:00,57.0,41.0,-100.00,North,9,3.0,6.0,55,0.00,,,-99.99,,2013-04-01 20:22:00,
2013-04-01 14:32:00,55.0,32.0,-100.00,NNW,339,6.0,10.0,42,0.00,,,-99.99,,2013-04-01 20:32:00,
2013-04-01 14:42:00,55.0,32.0,-100.00,NNW,339,6.0,10.0,42,0.00,,,-99.99,,2013-04-01 20:42:00,
2013-04-01 14:52:00,51.0,41.0,-100.00,SSE,159,6.0,10.0,69,0.00,,,-99.99,,2013-04-01 20:52:00,
2013-04-01 15:02:00,49.0,31.0,-100.00,SSE,155,5.0,10.0,50,0.00,,,-99.99,,2013-04-01 21:02:00,
2013-04-01 15:12:00,49.0,31.0,-100.00,SSE,155,5.0,10.0,50,0.00,,,-99.99,,2013-04-01 21:12:00,
2013-04-01 15:22:00,46.0,34.0,-100.00,SE,135,7.0,9.0,63,0.00,,,-99.99,,2013-04-01 21:22:00,
2013-04-01 15:32:00,46.0,33.0,-100.00,ESE,117,7.0,11.0,60,0.00,,,-99.99,,2013-04-01 21:32:00,
2013-04-01 15:43:00,46.0,33.0,-100.00,ESE,117,7.0,11.0,60,0.00,,,-99.99,,2013-04-01 21:43:00,
2013-04-01 15:53:00,46.0,33.0,-100.00,SE,140,4.0,8.0,60,0.00,,,-99.99,,2013-04-01 21:53:00,
2013-04-01 16:02:00,45.0,35.0,-100.00,NW,306,2.0,5.0,68,0.00,,,-99.99,,2013-04-01 22:02:00,
2013-04-01 16:12:00,45.0,35.0,-100.00,NW,306,2.0,5.0,68,0.00,,,-99.99,,2013-04-01 22:12:00,
2013-04-01 16:22:00,46.0,31.0,-100.00,SW,219,5.0,10.0,55,0.00,,,-99.99,,2013-04-01 22:22:00,
2013-04-01 16:33:00,46.0,31.0,-100.00,SW,219,5.0,10.0,55,0.00,,,-99.99,,2013-04-01 22:33:00,
2013-04-01 16:43:00,46.0,31.0,-100.00,SW,219,5.0,10.0,55,0.00,,,-99.99,,2013-04-01 22:43:00,
2013-04-01 16:52:00,44.0,33.0,-100.00,NNW,332,10.0,15.0,66,0.00,,,-99.99,,2013-04-01 22:52:00,
2013-04-01 17:02:00,40.0,34.0,-100.00,NW,311,7.0,10.0,78,0.00,,,-99.99,,2013-04-01 23:02:00,
2013-04-01 17:12:00,40.0,34.0,-100.00,NW,311,7.0,10.0,78,0.00,,,-99.99,,2013-04-01 23:12:00,
2013-04-01 17:22:00,40.0,34.0,-100.00,NNW,327,4.0,7.0,78,0.00,,,-99.99,,2013-04-01 23:22:00,
2013-04-01 17:32:00,42.0,33.0,-100.00,WNW,292,2.0,5.0,71,0.00,,,-99.99,,2013-04-01 23:32:00,
2013-04-01 17:42:00,42.0,33.0,-100.00,WNW,292,2.0,5.0,71,0.00,,,-99.99,,2013-04-01 23:42:00,
2013-04-01 17:53:00,44.0,32.0,-100.00,SSE,152,5.0,8.0,63,0.00,,,-99.99,,2013-04-01 23:53:00,
2013-04-01 18:02:00,46.0,33.0,-100.00,SE,128,2.0,4.0,61,0.00,,,-99.99,,2013-04-02 00:02:00,
2013-04-01 18:12:00,46.0,33.0,-100.00,SE,128,2.0,4.0,61,0.00,,,-99.99,,2013-04-02 00:12:00,
2013-04-01 18:22:00,46.0,33.0,-100.00,SE,138,5.0,7.0,61,0.00,,,-99.99,,2013-04-02 00:22:00,
2013-04-01 18:32:00,44.0,33.0,-100.00,SE,133,4.0,7.0,66,0.00,,,-99.99,,2013-04-02 00:32:00,
2013-04-01 18:42:00,44.0,33.0,-100.00,SE,133,4.0,7.0,66,0.00,,,-99.99,,2013-04-02 00:42:00,
2013-04-01 18:53:00,41.0,31.0,-100.00,NW,325,9.0,12.0,67,0.00,,,-99.99,,2013-04-02 00:53:00,
2013-04-01 19:02:00,39.0,33.0,-100.00,NNW,333,9.0,12.0,78,0.00,,,-99.99,,2013-04-02 01:02:00,
2013-04-01 19:12:00,39.0,33.0,-100.00,NNW,333,9.0,12.0,78,0.00,,,-99.99,,2013-04-02 01:12:00,
2013-04-01 19:22:00,38.0,33.0,-100.00,NNW,337,8.0,12.0,81,0.00,,,-99.99,,2013-04-02 01:22:00,
2013-04-01 19:32:00,37.0,32.0,-100.00,NW,326,8.0,12.0,82,0.00,,,-99.99,,2013-04-02 01:32:00,
2013-04-01 19:42:00,37.0,32.0,-100.00,NW,326,8.0,12.0,82,0.00,,,-99.99,,2013-04-02 01:42:00,
2013-04-01 19:53:00,37.0,33.0,-100.00,NW,325,10.0,17.0,86,0.00,,,-99.99,,2013-04-02 01:53:00,
2013-04-01 20:02:00,36.0,34.0,-100.00,NW,307,7.0,12.0,91,0.00,,,-99.99,,2013-04-02 02:02:00,
2013-04-01 20:12:00,36.0,34.0,-100.00,NW,307,7.0,12.0,91,0.00,,,-99.99,,2013-04-02 02:12:00,
2013-04-01 20:22:00,36.0,34.0,-100.00,NNW,344,9.0,13.0,91,0.00,,,-99.99,,2013-04-02 02:22:00,
2013-04-01 20:32:00,35.0,33.0,-100.00,NNW,330,5.0,10.0,92,0.00,,,-99.99,,2013-04-02 02:32:00,
2013-04-01 20:42:00,35.0,33.0,-100.00,NNW,330,5.0,10.0,92,0.00,,,-99.99,,2013-04-02 02:42:00,
2013-04-01 20:52:00,34.0,32.0,-100.00,NNW,329,4.0,6.0,94,0.00,,,-99.99,,2013-04-02 02:52:00,
2013-04-01 21:02:00,34.0,33.0,-100.00,NNW,337,4.0,7.0,95,0.00,,,-99.99,,2013-04-02 03:02:00,
2013-04-01 21:12:00,34.0,33.0,-100.00,NNW,337,4.0,7.0,95,0.00,,,-99.99,,2013-04-02 03:12:00,
2013-04-01 21:22:00,34.0,33.0,-100.00,NNW,335,5.0,9.0,97,0.00,,,-99.99,,2013-04-02 03:22:00,
2013-04-01 21:33:00,34.0,34.0,-100.00,NW,324,5.0,8.0,99,0.00,,,-99.99,,2013-04-02 03:33:00,
2013-04-01 21:43:00,34.0,34.0,-100.00,NW,324,5.0,8.0,99,0.00,,,-99.99,,2013-04-02 03:43:00,
2013-04-01 21:53:00,33.0,33.0,-100.00,NNW,330,3.0,5.0,99,0.00,,,-99.99,,2013-04-02 03:53:00,
2013-04-01 22:03:00,32.0,32.0,-100.00,NW,322,3.0,4.0,99,0.00,,,-99.99,,2013-04-02 04:03:00,
2013-04-01 22:13:00,32.0,32.0,-100.00,NW,322,3.0,4.0,99,0.00,,,-99.99,,2013-04-02 04:13:00,
2013-04-01 22:22:00,31.0,31.0,-100.00,East,90,0.0,1.0,99,0.00,,,-99.99,,2013-04-02 04:22:00,
2013-04-01 22:32:00,29.0,29.0,-100.00,ESE,112,0.0,2.0,99,0.00,,,-99.99,,2013-04-02 04:32:00,
2013-04-01 22:42:00,29.0,29.0,-100.00,ESE,112,0.0,2.0,99,0.00,,,-99.99,,2013-04-02 04:42:00,
2013-04-01 22:52:00,28.0,28.0,-100.00,ESE,121,2.0,3.0,99,0.00,,,-99.99,,2013-04-02 04:52:00,
2013-04-01 23:02:00,29.0,29.0,-100.00,ESE,112,2.0,3.0,99,0.00,,,-99.99,,2013-04-02 05:02:00,
2013-04-01 23:12:00,29.0,29.0,-100.00,ESE,112,2.0,3.0,99,0.00,,,-99.99,,2013-04-02 05:12:00,
2013-04-01 23:22:00,29.0,29.0,-100.00,ESE,115,0.0,0.0,99,0.00,,,-99.99,,2013-04-02 05:22:00,
2013-04-01 23:32:00,28.0,28.0,-100.00,NNW,337,2.0,4.0,99,0.00,,,-99.99,,2013-04-02 05:32:00,
2013-04-01 23:42:00,28.0,28.0,-100.00,NNW,337,2.0,4.0,99,0.00,,,-99.99,,2013-04-02 05:42:00,
2013-04-01 23:52:00,29.0,29.0,-100.00,WNW,295,0.0,0.0,99,0.00,,,-99.99,,2013-04-02 05:52:00,